createdAt,value
2019-03-10T00:00:27.506Z,44.56
2019-03-10T00:01:27.604Z,44.74
2019-03-10T00:02:27.472Z,44.74
2019-03-10T00:03:27.470Z,44.74
2019-03-10T00:04:27.455Z,44.34
2019-03-10T00:05:27.609Z,44.64
2019-03-10T00:06:27.521Z,44.64
2019-03-10T00:07:27.415Z,44.74
2019-03-10T00:08:27.423Z,44.54
2019-03-10T00:09:27.406Z,44.64
2019-03-10T00:10:27.397Z,44.64
2019-03-10T00:11:27.583Z,44.54
2019-03-10T00:12:27.360Z,44.54
2019-03-10T00:13:28.046Z,44.74
2019-03-10T00:14:27.338Z,44.43
2019-03-10T00:15:27.325Z,44.74
2019-03-10T00:16:27.379Z,44.74
2019-03-10T00:17:27.652Z,44.64
2019-03-10T00:18:27.301Z,44.54
2019-03-10T00:19:27.280Z,44.74
2019-03-10T00:20:27.269Z,44.24
2019-03-10T00:21:27.308Z,44.64
2019-03-10T00:22:27.252Z,44.54
2019-03-10T00:23:27.296Z,44.34
2019-03-10T00:24:27.270Z,44.34
2019-03-10T00:25:27.229Z,44.74
2019-03-10T00:26:35.475Z,44.54
2019-03-10T00:27:27.555Z,44.34
2019-03-10T00:28:27.210Z,44.24
2019-03-10T00:29:27.351Z,44.43
2019-03-10T00:30:27.168Z,44.43
2019-03-10T00:31:29.043Z,44.64
2019-03-10T00:32:27.143Z,44.64
2019-03-10T00:33:35.418Z,44.66
2019-03-10T00:34:27.138Z,44.74
2019-03-10T00:35:27.140Z,44.43
2019-03-10T00:36:34.981Z,44.74
2019-03-10T00:37:27.147Z,44.64
2019-03-10T00:38:27.072Z,44.74
2019-03-10T00:39:27.058Z,44.54
2019-03-10T00:40:27.046Z,44.74
2019-03-10T00:41:27.078Z,44.74
2019-03-10T00:42:27.169Z,44.64
2019-03-10T00:43:27.039Z,44.24
2019-03-10T00:44:26.997Z,44.64
2019-03-10T00:45:26.986Z,44.64
2019-03-10T00:46:27.004Z,44.34
2019-03-10T00:47:27.263Z,44.54
2019-03-10T00:48:27.019Z,44.34
2019-03-10T00:49:27.040Z,44.34
2019-03-10T00:50:26.999Z,44.24
2019-03-10T00:51:27.203Z,44.64
2019-03-10T00:52:27.204Z,44.74
2019-03-10T00:53:26.972Z,44.34
2019-03-10T00:54:27.007Z,44.64
2019-03-10T00:55:26.887Z,44.74
2019-03-10T00:56:26.884Z,44.34
2019-03-10T00:57:27.042Z,44.54
2019-03-10T00:58:26.932Z,44.64
2019-03-10T00:59:26.984Z,44.74
2019-03-10T01:00:26.866Z,44.64
2019-03-10T01:01:26.906Z,44.74
2019-03-10T01:02:27.001Z,44.74
2019-03-10T01:03:26.784Z,44.64
2019-03-10T01:04:26.893Z,44.43
2019-03-10T01:05:26.792Z,44.34
2019-03-10T01:06:26.823Z,44.74
2019-03-10T01:07:26.744Z,44.34
2019-03-10T01:08:26.914Z,44.64
2019-03-10T01:09:26.741Z,44.74
2019-03-10T01:10:27.331Z,44.64
2019-03-10T01:11:26.852Z,44.64
2019-03-10T01:12:26.696Z,44.74
2019-03-10T01:13:26.783Z,44.64
2019-03-10T01:14:35.124Z,44.56
2019-03-10T01:15:26.662Z,44.43
2019-03-10T01:16:26.647Z,44.34
2019-03-10T01:17:26.912Z,44.43
2019-03-10T01:18:26.633Z,44.54
2019-03-10T01:19:26.622Z,44.64
2019-03-10T01:20:26.601Z,44.74
2019-03-10T01:21:26.600Z,44.64
2019-03-10T01:22:26.571Z,44.54
2019-03-10T01:23:26.767Z,44.54
2019-03-10T01:24:26.561Z,44.24
2019-03-10T01:25:26.694Z,44.64
2019-03-10T01:26:26.629Z,44.64
2019-03-10T01:27:26.515Z,44.34
2019-03-10T01:28:26.506Z,44.74
2019-03-10T01:29:26.900Z,44.64
2019-03-10T01:30:27.524Z,44.54
2019-03-10T01:31:26.475Z,44.64
2019-03-10T01:32:26.464Z,44.74
2019-03-10T01:33:26.464Z,44.34
2019-03-10T01:34:26.452Z,44.74
2019-03-10T01:35:26.652Z,44.64
2019-03-10T01:36:26.588Z,44.43
2019-03-10T01:37:26.412Z,44.64
2019-03-10T01:38:26.396Z,44.74
2019-03-10T01:39:26.382Z,44.74
2019-03-10T01:40:26.377Z,44.54
2019-03-10T01:41:26.464Z,44.64
2019-03-10T01:42:26.353Z,44.54
2019-03-10T01:43:26.369Z,44.74
2019-03-10T01:44:26.329Z,44.64
2019-03-10T01:45:27.292Z,44.76
2019-03-10T01:46:26.315Z,44.76
2019-03-10T01:47:26.413Z,44.54
2019-03-10T01:48:27.753Z,44.74
2019-03-10T01:49:26.561Z,44.74
2019-03-10T01:50:26.399Z,44.43
2019-03-10T01:51:26.270Z,44.24
2019-03-10T01:52:26.240Z,44.64
2019-03-10T01:53:33.753Z,44.54
2019-03-10T01:54:26.416Z,44.76
2019-03-10T01:55:26.205Z,44.74
2019-03-10T01:56:26.190Z,44.74
2019-03-10T01:57:26.415Z,44.34
2019-03-10T01:58:28.744Z,44.74
2019-03-10T01:59:26.252Z,44.64
2019-03-10T02:00:26.154Z,44.74
2019-03-10T02:01:26.183Z,44.54
2019-03-10T02:02:26.153Z,44.54
2019-03-10T02:03:26.132Z,44.66
2019-03-10T02:04:26.134Z,44.54
2019-03-10T02:05:26.279Z,44.56
2019-03-10T02:06:26.113Z,44.13
2019-03-10T02:07:26.072Z,44.43
2019-03-10T02:08:26.118Z,44.74
2019-03-10T02:09:26.503Z,44.54
2019-03-10T02:10:26.047Z,44.54
2019-03-10T02:11:27.540Z,44.64
2019-03-10T02:12:26.017Z,44.74
2019-03-10T02:13:26.020Z,44.56
2019-03-10T02:14:26.369Z,44.64
2019-03-10T02:15:26.976Z,44.66
2019-03-10T02:16:33.222Z,44.16
2019-03-10T02:17:26.084Z,44.76
2019-03-10T02:18:25.947Z,44.76
2019-03-10T02:19:25.950Z,44.34
2019-03-10T02:20:25.923Z,44.56
2019-03-10T02:21:25.909Z,44.76
2019-03-10T02:22:26.133Z,44.76
2019-03-10T02:23:26.957Z,44.54
2019-03-10T02:24:25.881Z,44.74
2019-03-10T02:25:25.889Z,44.64
2019-03-10T02:26:25.854Z,44.16
2019-03-10T02:27:25.861Z,44.76
2019-03-10T02:28:25.952Z,44.74
2019-03-10T02:29:25.879Z,44.74
2019-03-10T02:30:25.838Z,44.43
2019-03-10T02:31:25.801Z,44.54
2019-03-10T02:32:26.021Z,44.13
2019-03-10T02:33:25.795Z,44.34
2019-03-10T02:34:25.917Z,43.84
2019-03-10T02:35:25.960Z,44.13
2019-03-10T02:36:25.745Z,43.84
2019-03-10T02:37:25.736Z,44.43
2019-03-10T02:38:25.736Z,43.93
2019-03-10T02:39:25.707Z,44.56
2019-03-10T02:40:25.727Z,44.13
2019-03-10T02:41:25.689Z,44.34
2019-03-10T02:42:25.682Z,43.63
2019-03-10T02:43:25.727Z,44.26
2019-03-10T02:44:25.675Z,43.93
2019-03-10T02:45:25.647Z,44.34
2019-03-10T02:46:25.865Z,44.24
2019-03-10T02:47:33.688Z,44.24
2019-03-10T02:48:25.766Z,44.06
2019-03-10T02:49:25.993Z,44.54
2019-03-10T02:50:25.597Z,44.54
2019-03-10T02:51:25.581Z,44.04
2019-03-10T02:52:25.882Z,44.46
2019-03-10T02:53:25.559Z,44.54
2019-03-10T02:54:25.542Z,43.84
2019-03-10T02:55:25.533Z,44.06
2019-03-10T02:56:25.518Z,44.64
2019-03-10T02:57:25.613Z,44.64
2019-03-10T02:58:25.595Z,44.54
2019-03-10T02:59:25.526Z,44.74
2019-03-10T03:00:25.482Z,44.35
2019-03-10T03:01:25.660Z,44.54
2019-03-10T03:02:25.455Z,44.56
2019-03-10T03:03:25.606Z,44.34
2019-03-10T03:04:25.633Z,44.64
2019-03-10T03:05:25.428Z,44.13
2019-03-10T03:06:25.406Z,44.56
2019-03-10T03:07:25.466Z,44.66
2019-03-10T03:08:25.396Z,44.64
2019-03-10T03:09:25.474Z,44.34
2019-03-10T03:10:25.760Z,44.56
2019-03-10T03:11:25.373Z,44.43
2019-03-10T03:12:26.302Z,44.74
2019-03-10T03:13:25.328Z,44.64
2019-03-10T03:14:25.419Z,44.24
2019-03-10T03:15:25.309Z,44.74
2019-03-10T03:16:25.799Z,44.54
2019-03-10T03:17:25.291Z,44.74
2019-03-10T03:18:25.297Z,44.56
2019-03-10T03:19:25.270Z,44.54
2019-03-10T03:20:25.618Z,44.04
2019-03-10T03:21:25.242Z,44.56
2019-03-10T03:22:25.466Z,44.66
2019-03-10T03:23:25.312Z,44.76
2019-03-10T03:24:25.211Z,44.56
2019-03-10T03:25:25.311Z,44.46
2019-03-10T03:26:25.233Z,44.26
2019-03-10T03:27:25.296Z,44.74
2019-03-10T03:28:25.195Z,44.56
2019-03-10T03:29:25.153Z,44.26
2019-03-10T03:30:25.165Z,44.76
2019-03-10T03:31:25.475Z,44.76
2019-03-10T03:32:25.269Z,44.64
2019-03-10T03:33:25.112Z,44.56
2019-03-10T03:34:25.151Z,44.74
2019-03-10T03:35:25.201Z,44.43
2019-03-10T03:36:25.092Z,44.64
2019-03-10T03:37:25.575Z,44.74
2019-03-10T03:38:25.051Z,44.46
2019-03-10T03:39:25.043Z,44.76
2019-03-10T03:40:25.058Z,44.76
2019-03-10T03:41:25.204Z,44.66
2019-03-10T03:42:25.007Z,44.76
2019-03-10T03:43:25.178Z,44.64
2019-03-10T03:44:24.981Z,44.76
2019-03-10T03:45:24.974Z,44.66
2019-03-10T03:46:25.042Z,44.43
2019-03-10T03:47:24.958Z,44.46
2019-03-10T03:48:25.041Z,44.46
2019-03-10T03:49:26.951Z,44.74
2019-03-10T03:50:25.048Z,44.16
2019-03-10T03:51:32.412Z,44.56
2019-03-10T03:52:25.018Z,44.76
2019-03-10T03:53:24.898Z,44.64
2019-03-10T03:54:24.869Z,44.74
2019-03-10T03:55:32.911Z,44.56
2019-03-10T03:56:25.002Z,44.56
2019-03-10T03:57:25.118Z,44.76
2019-03-10T03:58:25.431Z,44.76
2019-03-10T03:59:24.830Z,44.76
2019-03-10T04:00:24.801Z,44.66
2019-03-10T04:01:24.918Z,44.76
2019-03-10T04:02:24.799Z,44.76
2019-03-10T04:03:24.788Z,44.76
2019-03-10T04:04:24.765Z,44.46
2019-03-10T04:05:24.785Z,44.76
2019-03-10T04:06:24.748Z,44.76
2019-03-10T04:07:24.732Z,44.66
2019-03-10T04:08:24.715Z,44.56
2019-03-10T04:09:25.151Z,44.46
2019-03-10T04:10:24.783Z,44.76
2019-03-10T04:11:24.686Z,44.56
2019-03-10T04:12:24.683Z,44.76
2019-03-10T04:13:24.657Z,44.56
2019-03-10T04:14:24.657Z,44.66
2019-03-10T04:15:24.973Z,44.76
2019-03-10T04:16:24.627Z,44.66
2019-03-10T04:17:24.619Z,44.56
2019-03-10T04:18:24.661Z,44.46
2019-03-10T04:19:24.607Z,44.76
2019-03-10T04:20:24.634Z,44.54
2019-03-10T04:21:25.948Z,44.76
2019-03-10T04:22:24.556Z,44.76
2019-03-10T04:23:24.589Z,44.56
2019-03-10T04:24:24.683Z,44.76
2019-03-10T04:25:24.524Z,44.56
2019-03-10T04:26:24.790Z,44.76
2019-03-10T04:27:24.569Z,44.26
2019-03-10T04:28:24.499Z,44.76
2019-03-10T04:29:24.512Z,44.66
2019-03-10T04:30:24.565Z,44.76
2019-03-10T04:31:24.458Z,44.66
2019-03-10T04:32:24.470Z,44.66
2019-03-10T04:33:24.942Z,44.35
2019-03-10T04:34:33.003Z,44.56
2019-03-10T04:35:24.542Z,44.76
2019-03-10T04:36:24.412Z,44.56
2019-03-10T04:37:24.439Z,44.76
2019-03-10T04:38:24.707Z,44.66
2019-03-10T04:39:24.401Z,44.76
2019-03-10T04:40:24.525Z,44.76
2019-03-10T04:41:24.352Z,44.66
2019-03-10T04:42:24.332Z,44.66
2019-03-10T04:43:24.325Z,44.76
2019-03-10T04:44:25.724Z,44.66
2019-03-10T04:45:24.336Z,44.76
2019-03-10T04:46:24.323Z,44.76
2019-03-10T04:47:24.295Z,44.56
2019-03-10T04:48:24.271Z,44.56
2019-03-10T04:49:24.254Z,44.76
2019-03-10T04:50:24.248Z,44.76
2019-03-10T04:51:24.413Z,44.16
2019-03-10T04:52:24.232Z,44.76
2019-03-10T04:53:24.384Z,44.56
2019-03-10T04:54:31.961Z,44.16
2019-03-10T04:55:24.274Z,44.26
2019-03-10T04:56:24.268Z,44.46
2019-03-10T04:57:24.264Z,44.16
2019-03-10T04:58:24.195Z,44.56
2019-03-10T04:59:24.148Z,44.26
2019-03-10T05:00:24.135Z,44.76
2019-03-10T05:01:24.128Z,43.85
2019-03-10T05:02:24.116Z,44.35
2019-03-10T05:03:24.141Z,43.85
2019-03-10T05:04:24.233Z,44.56
2019-03-10T05:05:24.084Z,44.16
2019-03-10T05:06:24.062Z,44.76
2019-03-10T05:07:24.068Z,44.26
2019-03-10T05:08:24.051Z,44.16
2019-03-10T05:09:24.060Z,44.66
2019-03-10T05:10:25.185Z,44.35
2019-03-10T05:11:24.011Z,43.85
2019-03-10T05:12:24.069Z,44.46
2019-03-10T05:13:23.988Z,44.26
2019-03-10T05:14:23.983Z,44.35
2019-03-10T05:15:24.023Z,43.96
2019-03-10T05:16:24.074Z,44.35
2019-03-10T05:17:23.948Z,44.06
2019-03-10T05:18:24.342Z,43.93
2019-03-10T05:19:24.104Z,44.35
2019-03-10T05:20:23.912Z,43.96
2019-03-10T05:21:24.278Z,43.85
2019-03-10T05:22:24.455Z,44.16
2019-03-10T05:23:23.875Z,43.66
2019-03-10T05:24:23.862Z,44.26
2019-03-10T05:25:31.552Z,43.55
2019-03-10T05:26:31.480Z,43.63
2019-03-10T05:27:23.971Z,44.24
2019-03-10T05:28:24.002Z,43.43
2019-03-10T05:29:23.808Z,43.46
2019-03-10T05:30:23.802Z,44.26
2019-03-10T05:31:24.094Z,43.43
2019-03-10T05:32:26.499Z,43.66
2019-03-10T05:33:23.770Z,43.43
2019-03-10T05:34:24.147Z,43.46
2019-03-10T05:35:23.765Z,43.66
2019-03-10T05:36:24.222Z,43.55
2019-03-10T05:37:23.721Z,43.63
2019-03-10T05:38:23.834Z,43.96
2019-03-10T05:39:23.705Z,43.93
2019-03-10T05:40:23.684Z,44.06
2019-03-10T05:41:23.679Z,43.54
2019-03-10T05:42:28.128Z,44.04
2019-03-10T05:43:23.654Z,43.93
2019-03-10T05:44:28.218Z,43.63
2019-03-10T05:45:24.037Z,43.96
2019-03-10T05:46:23.634Z,43.55
2019-03-10T05:47:23.604Z,44.06
2019-03-10T05:48:23.607Z,43.96
2019-03-10T05:49:23.667Z,43.66
2019-03-10T05:50:24.158Z,43.63
2019-03-10T05:51:23.702Z,43.55
2019-03-10T05:52:23.731Z,43.84
2019-03-10T05:53:23.556Z,43.84
2019-03-10T05:54:23.537Z,43.74
2019-03-10T05:55:23.515Z,43.63
2019-03-10T05:56:23.655Z,43.54
2019-03-10T05:57:23.489Z,43.54
2019-03-10T05:58:23.481Z,43.84
2019-03-10T05:59:23.645Z,43.63
2019-03-10T06:00:23.552Z,43.54
2019-03-10T06:01:23.444Z,43.63
2019-03-10T06:02:23.756Z,43.63
2019-03-10T06:03:23.745Z,43.74
2019-03-10T06:04:23.413Z,43.63
2019-03-10T06:05:23.404Z,43.93
2019-03-10T06:06:31.573Z,43.74
2019-03-10T06:07:23.538Z,43.63
2019-03-10T06:08:23.517Z,43.74
2019-03-10T06:09:23.368Z,43.63
2019-03-10T06:10:23.541Z,43.93
2019-03-10T06:11:23.342Z,43.74
2019-03-10T06:12:23.321Z,43.93
2019-03-10T06:13:23.313Z,43.76
2019-03-10T06:14:23.482Z,43.63
2019-03-10T06:15:23.388Z,43.74
2019-03-10T06:16:23.738Z,43.84
2019-03-10T06:17:23.426Z,43.74
2019-03-10T06:18:23.317Z,43.74
2019-03-10T06:19:23.249Z,43.74
2019-03-10T06:20:23.302Z,43.74
2019-03-10T06:21:23.229Z,44.04
2019-03-10T06:22:23.219Z,43.76
2019-03-10T06:23:23.203Z,43.84
2019-03-10T06:24:23.223Z,43.96
2019-03-10T06:25:23.182Z,43.74
2019-03-10T06:26:23.334Z,43.74
2019-03-10T06:27:23.153Z,43.93
2019-03-10T06:28:23.233Z,43.84
2019-03-10T06:29:23.184Z,43.84
2019-03-10T06:31:39.420Z,43.84
2019-03-10T06:32:38.910Z,43.66
2019-03-10T06:33:38.783Z,43.84
2019-03-10T06:34:38.794Z,43.84
2019-03-10T06:35:39.151Z,43.84
2019-03-10T06:36:38.751Z,43.84
2019-03-10T06:37:38.850Z,43.84
2019-03-10T06:38:38.712Z,43.74
2019-03-10T06:39:38.814Z,43.84
2019-03-10T06:40:38.734Z,43.93
2019-03-10T06:41:38.759Z,43.84
2019-03-10T06:42:39.290Z,43.84
2019-03-10T06:43:38.862Z,43.93
2019-03-10T06:44:38.705Z,43.93
2019-03-10T06:45:38.641Z,43.93
2019-03-10T06:46:38.621Z,43.93
2019-03-10T06:47:38.727Z,44.04
2019-03-10T06:48:38.600Z,43.93
2019-03-10T06:49:38.788Z,43.74
2019-03-10T06:50:38.737Z,43.84
2019-03-10T06:51:38.590Z,43.93
2019-03-10T06:52:38.787Z,43.93
2019-03-10T06:53:38.553Z,43.84
2019-03-10T06:54:39.030Z,43.84
2019-03-10T06:55:39.017Z,43.74
2019-03-10T06:56:38.535Z,43.93
2019-03-10T06:57:39.137Z,43.93
2019-03-10T06:58:38.494Z,43.84
2019-03-10T06:59:38.488Z,43.84
2019-03-10T07:00:38.564Z,43.93
2019-03-10T07:01:38.631Z,43.93
2019-03-10T07:02:38.453Z,43.93
2019-03-10T07:03:38.529Z,43.84
2019-03-10T07:04:38.429Z,43.96
2019-03-10T07:05:39.414Z,43.84
2019-03-10T07:06:38.438Z,43.84
2019-03-10T07:07:38.535Z,43.93
2019-03-10T07:08:38.659Z,44.13
2019-03-10T07:09:38.693Z,44.13
2019-03-10T07:10:38.362Z,43.84
2019-03-10T07:11:38.581Z,43.84
2019-03-10T07:12:38.520Z,43.84
2019-03-10T07:13:39.627Z,44.13
2019-03-10T07:14:38.460Z,43.93
2019-03-10T07:15:38.334Z,43.84
2019-03-10T07:16:38.290Z,44.13
2019-03-10T07:17:38.284Z,44.24
2019-03-10T07:18:38.286Z,44.13
2019-03-10T07:19:38.451Z,43.93
2019-03-10T07:20:38.271Z,44.04
2019-03-10T07:21:38.231Z,44.24
2019-03-10T07:22:38.249Z,44.24
2019-03-10T07:23:38.400Z,44.04
2019-03-10T07:24:38.289Z,44.13
2019-03-10T07:25:38.376Z,43.93
2019-03-10T07:26:38.271Z,44.13
2019-03-10T07:27:38.280Z,43.93
2019-03-10T07:28:38.203Z,44.13
2019-03-10T07:29:38.154Z,44.54
2019-03-10T07:30:38.139Z,44.04
2019-03-10T07:31:38.644Z,43.84
2019-03-10T07:32:38.112Z,43.93
2019-03-10T07:33:38.101Z,43.93
2019-03-10T07:34:38.112Z,44.16
2019-03-10T07:35:38.172Z,43.93
2019-03-10T07:36:38.228Z,43.93
2019-03-10T07:37:38.108Z,43.93
2019-03-10T07:38:38.053Z,43.93
2019-03-10T07:39:38.543Z,43.84
2019-03-10T07:40:38.019Z,44.34
2019-03-10T07:41:38.433Z,43.84
2019-03-10T07:42:38.143Z,43.93
2019-03-10T07:43:38.033Z,44.54
2019-03-10T07:44:38.610Z,44.13
2019-03-10T07:45:37.968Z,44.24
2019-03-10T07:46:37.953Z,43.93
2019-03-10T07:47:38.324Z,44.13
2019-03-10T07:48:38.960Z,44.43
2019-03-10T07:49:38.268Z,44.13
2019-03-10T07:50:37.911Z,44.54
2019-03-10T07:51:38.046Z,43.93
2019-03-10T07:52:37.887Z,44.43
2019-03-10T07:53:37.876Z,44.34
2019-03-10T07:54:37.989Z,44.13
2019-03-10T07:55:37.934Z,44.34
2019-03-10T07:56:38.199Z,43.93
2019-03-10T07:57:46.244Z,44.34
2019-03-10T07:58:37.886Z,44.43
2019-03-10T07:59:37.841Z,43.93
2019-03-10T08:00:37.793Z,44.43
2019-03-10T08:01:38.031Z,44.43
2019-03-10T08:02:37.784Z,44.43
2019-03-10T08:03:37.808Z,44.43
2019-03-10T08:04:37.870Z,43.93
2019-03-10T08:05:37.763Z,44.43
2019-03-10T08:06:37.944Z,44.34
2019-03-10T08:07:39.020Z,44.43
2019-03-10T08:08:37.707Z,44.34
2019-03-10T08:09:37.797Z,44.43
2019-03-10T08:10:37.688Z,44.34
2019-03-10T08:11:37.668Z,44.34
2019-03-10T08:12:38.359Z,44.34
2019-03-10T08:13:37.752Z,44.34
2019-03-10T08:14:37.979Z,44.04
2019-03-10T08:15:37.627Z,44.43
2019-03-10T08:16:37.644Z,43.84
2019-03-10T08:17:37.827Z,44.13
2019-03-10T08:18:37.649Z,44.43
2019-03-10T08:19:38.164Z,44.24
2019-03-10T08:20:37.571Z,43.93
2019-03-10T08:21:37.567Z,44.34
2019-03-10T08:22:37.549Z,44.34
2019-03-10T08:23:37.597Z,44.24
2019-03-10T08:24:37.685Z,43.93
2019-03-10T08:25:37.858Z,44.24
2019-03-10T08:26:37.508Z,43.54
2019-03-10T08:27:37.935Z,44.24
2019-03-10T08:28:38.011Z,44.24
2019-03-10T08:29:37.474Z,44.04
2019-03-10T08:30:38.429Z,44.04
2019-03-10T08:31:37.480Z,44.13
2019-03-10T08:32:37.520Z,44.24
2019-03-10T08:33:37.426Z,44.24
2019-03-10T08:34:37.419Z,43.63
2019-03-10T08:35:37.548Z,43.74
2019-03-10T08:36:37.525Z,43.74
2019-03-10T08:37:37.484Z,44.04
2019-03-10T08:38:37.374Z,44.13
2019-03-10T08:39:37.360Z,43.63
2019-03-10T08:40:37.351Z,44.13
2019-03-10T08:41:37.604Z,44.13
2019-03-10T08:42:37.749Z,44.24
2019-03-10T08:43:37.341Z,43.54
2019-03-10T08:44:37.305Z,44.04
2019-03-10T08:45:37.391Z,44.04
2019-03-10T08:46:37.385Z,43.54
2019-03-10T08:47:45.373Z,43.63
2019-03-10T08:48:37.736Z,43.63
2019-03-10T08:49:45.024Z,43.74
2019-03-10T08:50:38.234Z,44.04
2019-03-10T08:51:37.362Z,43.63
2019-03-10T08:52:37.220Z,43.63
2019-03-10T08:53:37.564Z,43.93
2019-03-10T08:54:37.193Z,43.74
2019-03-10T08:55:37.856Z,44.13
2019-03-10T08:56:37.321Z,43.74
2019-03-10T08:57:38.170Z,44.13
2019-03-10T08:58:37.148Z,44.04
2019-03-10T08:59:37.161Z,43.63
2019-03-10T09:00:37.126Z,44.13
2019-03-10T09:01:37.802Z,44.04
2019-03-10T09:02:37.453Z,43.93
2019-03-10T09:03:37.704Z,43.74
2019-03-10T09:04:37.175Z,43.74
2019-03-10T09:05:37.081Z,44.04
2019-03-10T09:06:37.122Z,44.13
2019-03-10T09:07:44.769Z,44.13
2019-03-10T09:08:37.045Z,43.93
2019-03-10T09:09:37.027Z,44.04
2019-03-10T09:10:37.323Z,43.63
2019-03-10T09:11:37.881Z,43.63
2019-03-10T09:12:37.157Z,43.93
2019-03-10T09:13:37.020Z,43.63
2019-03-10T09:14:36.973Z,43.93
2019-03-10T09:15:36.957Z,43.63
2019-03-10T09:16:37.272Z,43.84
2019-03-10T09:17:37.644Z,43.84
2019-03-10T09:18:36.938Z,44.34
2019-03-10T09:19:37.065Z,43.63
2019-03-10T09:20:36.906Z,43.74
2019-03-10T09:21:37.461Z,43.93
2019-03-10T09:22:36.936Z,43.93
2019-03-10T09:23:37.880Z,43.54
2019-03-10T09:24:37.464Z,43.74
2019-03-10T09:25:36.871Z,43.54
2019-03-10T09:26:37.129Z,43.54
2019-03-10T09:27:36.910Z,43.54
2019-03-10T09:28:36.814Z,43.63
2019-03-10T09:29:36.800Z,43.63
2019-03-10T09:30:36.788Z,43.63
2019-03-10T09:31:37.461Z,43.74
2019-03-10T09:32:37.087Z,43.63
2019-03-10T09:33:36.752Z,43.63
2019-03-10T09:34:36.762Z,43.91
2019-03-10T09:35:37.057Z,43.54
2019-03-10T09:36:36.926Z,43.51
2019-03-10T09:37:38.838Z,43.62
2019-03-10T09:38:37.023Z,43.74
2019-03-10T09:39:37.145Z,43.63
2019-03-10T09:40:36.677Z,43.93
2019-03-10T09:41:37.140Z,43.54
2019-03-10T09:42:36.718Z,43.91
2019-03-10T09:43:36.818Z,43.74
2019-03-10T09:44:36.792Z,43.74
2019-03-10T09:45:36.968Z,43.84
2019-03-10T09:46:37.117Z,43.74
2019-03-10T09:47:36.600Z,43.54
2019-03-10T09:48:36.588Z,43.74
2019-03-10T09:49:36.633Z,43.71
2019-03-10T09:50:36.742Z,43.74
2019-03-10T09:51:36.548Z,43.74
2019-03-10T09:52:37.081Z,43.41
2019-03-10T09:53:36.537Z,43.63
2019-03-10T09:54:36.533Z,43.74
2019-03-10T09:55:36.790Z,43.74
2019-03-10T09:56:36.666Z,43.74
2019-03-10T09:57:36.482Z,43.82
2019-03-10T09:58:46.286Z,43.62
2019-03-10T09:59:36.804Z,43.63
2019-03-10T10:00:36.636Z,43.74
2019-03-10T10:01:39.364Z,43.54
2019-03-10T10:02:37.726Z,43.74
2019-03-10T10:03:36.444Z,43.63
2019-03-10T10:04:36.407Z,43.71
2019-03-10T10:05:36.394Z,43.63
2019-03-10T10:06:36.406Z,43.62
2019-03-10T10:07:36.547Z,43.43
2019-03-10T10:08:36.743Z,43.63
2019-03-10T10:09:36.630Z,43.62
2019-03-10T10:10:36.434Z,43.54
2019-03-10T10:11:37.367Z,43.41
2019-03-10T10:12:36.327Z,43.43
2019-03-10T10:13:36.805Z,43.33
2019-03-10T10:14:36.296Z,43.41
2019-03-10T10:15:36.669Z,43.51
2019-03-10T10:16:36.567Z,43.43
2019-03-10T10:17:36.283Z,43.33
2019-03-10T10:18:36.245Z,43.32
2019-03-10T10:19:36.915Z,43.41
2019-03-10T10:20:36.434Z,43.21
2019-03-10T10:21:36.367Z,43.54
2019-03-10T10:22:36.488Z,43.43
2019-03-10T10:23:36.676Z,43.54
2019-03-10T10:24:43.588Z,43.41
2019-03-10T10:25:36.252Z,43.21
2019-03-10T10:26:36.514Z,43.71
2019-03-10T10:27:36.176Z,43.41
2019-03-10T10:28:36.218Z,43.41
2019-03-10T10:29:36.818Z,43.41
2019-03-10T10:30:36.318Z,43.41
2019-03-10T10:31:36.558Z,43.12
2019-03-10T10:32:36.247Z,43.21
2019-03-10T10:33:36.086Z,43.21
2019-03-10T10:34:36.195Z,42.32
2019-03-10T10:35:36.064Z,43.12
2019-03-10T10:36:36.211Z,42.41
2019-03-10T10:37:36.213Z,43.01
2019-03-10T10:38:37.734Z,43.01
2019-03-10T10:39:36.012Z,43.01
2019-03-10T10:40:36.027Z,42.71
2019-03-10T10:41:36.038Z,42.82
2019-03-10T10:42:36.065Z,42.91
2019-03-10T10:43:44.018Z,43.12
2019-03-10T10:44:44.084Z,42.71
2019-03-10T10:45:36.037Z,43.01
2019-03-10T10:46:36.203Z,42.91
2019-03-10T10:47:36.006Z,43.01
2019-03-10T10:48:35.951Z,42.82
2019-03-10T10:49:36.070Z,42.82
2019-03-10T10:50:36.147Z,42.82
2019-03-10T10:51:35.905Z,42.71
2019-03-10T10:52:38.189Z,42.91
2019-03-10T10:53:35.862Z,42.82
2019-03-10T10:54:36.536Z,42.82
2019-03-10T10:55:35.931Z,42.82
2019-03-10T10:56:35.847Z,42.91
2019-03-10T10:57:35.974Z,42.82
2019-03-10T10:58:35.961Z,42.61
2019-03-10T10:59:35.789Z,43.01
2019-03-10T11:00:35.920Z,42.91
2019-03-10T11:01:35.764Z,43.12
2019-03-10T11:02:36.414Z,42.71
2019-03-10T11:03:35.968Z,43.01
2019-03-10T11:04:35.739Z,42.71
2019-03-10T11:05:35.723Z,42.91
2019-03-10T11:06:36.249Z,43.01
2019-03-10T11:07:35.823Z,42.82
2019-03-10T11:08:35.688Z,42.82
2019-03-10T11:09:43.560Z,42.82
2019-03-10T11:10:35.706Z,43.01
2019-03-10T11:11:35.824Z,43.12
2019-03-10T11:12:35.742Z,42.91
2019-03-10T11:13:35.639Z,43.01
2019-03-10T11:14:35.704Z,43.01
2019-03-10T11:15:35.624Z,43.01
2019-03-10T11:16:35.702Z,43.01
2019-03-10T11:17:35.586Z,43.01
2019-03-10T11:18:35.634Z,43.01
2019-03-10T11:19:35.724Z,43.01
2019-03-10T11:20:35.585Z,42.91
2019-03-10T11:21:43.669Z,42.91
2019-03-10T11:22:35.876Z,43.01
2019-03-10T11:23:42.647Z,43.01
2019-03-10T11:24:43.631Z,43.01
2019-03-10T11:25:35.656Z,43.12
2019-03-10T11:26:35.493Z,43.01
2019-03-10T11:27:35.658Z,43.12
2019-03-10T11:28:35.606Z,43.12
2019-03-10T11:29:35.655Z,43.12
2019-03-10T11:30:36.268Z,43.01
2019-03-10T11:31:35.652Z,43.01
2019-03-10T11:32:35.888Z,43.01
2019-03-10T11:33:35.556Z,43.01
2019-03-10T11:34:35.541Z,43.01
2019-03-10T11:35:35.438Z,42.82
2019-03-10T11:36:35.381Z,42.82
2019-03-10T11:37:35.517Z,42.71
2019-03-10T11:38:37.149Z,43.01
2019-03-10T11:39:35.339Z,42.82
2019-03-10T11:40:35.324Z,42.91
2019-03-10T11:41:35.487Z,42.91
2019-03-10T11:42:35.301Z,42.91
2019-03-10T11:43:35.324Z,43.01
2019-03-10T11:44:35.293Z,42.91
2019-03-10T11:45:35.596Z,42.82
2019-03-10T11:46:35.257Z,42.82
2019-03-10T11:47:35.485Z,42.91
2019-03-10T11:48:35.464Z,42.71
2019-03-10T11:49:35.356Z,42.69
2019-03-10T11:50:35.215Z,42.69
2019-03-10T11:51:35.316Z,43.01
2019-03-10T11:52:43.293Z,42.71
2019-03-10T11:53:35.181Z,42.82
2019-03-10T11:54:35.321Z,43.12
2019-03-10T11:55:35.160Z,42.79
2019-03-10T11:56:35.301Z,43.41
2019-03-10T11:57:35.140Z,42.82
2019-03-10T11:58:35.815Z,42.91
2019-03-10T11:59:35.194Z,42.91
2019-03-10T12:00:35.103Z,42.82
2019-03-10T12:01:35.828Z,43.12
2019-03-10T12:02:35.537Z,42.71
2019-03-10T12:03:35.062Z,43.01
2019-03-10T12:04:35.909Z,42.82
2019-03-10T12:05:35.044Z,42.69
2019-03-10T12:06:35.035Z,43.01
2019-03-10T12:07:35.026Z,42.79
2019-03-10T12:08:35.013Z,42.90
2019-03-10T12:09:36.118Z,42.99
2019-03-10T12:10:35.022Z,42.79
2019-03-10T12:11:35.247Z,42.90
2019-03-10T12:12:35.122Z,42.82
2019-03-10T12:13:34.955Z,42.79
2019-03-10T12:14:34.946Z,42.82
2019-03-10T12:15:34.954Z,43.01
2019-03-10T12:16:35.668Z,42.91
2019-03-10T12:17:34.904Z,42.91
2019-03-10T12:18:34.926Z,43.12
2019-03-10T12:19:34.887Z,42.82
2019-03-10T12:20:34.874Z,42.41
2019-03-10T12:21:34.870Z,42.71
2019-03-10T12:22:34.944Z,42.32
2019-03-10T12:23:34.841Z,42.71
2019-03-10T12:24:35.411Z,42.71
2019-03-10T12:25:34.826Z,42.32
2019-03-10T12:26:34.803Z,43.32
2019-03-10T12:27:34.795Z,43.21
2019-03-10T12:28:34.947Z,43.62
2019-03-10T12:29:34.797Z,42.91
2019-03-10T12:30:34.931Z,43.62
2019-03-10T12:31:43.299Z,43.62
2019-03-10T12:32:34.753Z,43.12
2019-03-10T12:33:34.739Z,43.41
2019-03-10T12:34:34.843Z,43.41
2019-03-10T12:35:35.001Z,43.41
2019-03-10T12:36:34.824Z,43.41
2019-03-10T12:37:34.691Z,43.71
2019-03-10T12:38:34.696Z,43.62
2019-03-10T12:39:34.657Z,43.41
2019-03-10T12:40:34.910Z,43.32
2019-03-10T12:41:34.636Z,43.51
2019-03-10T12:42:34.772Z,43.12
2019-03-10T12:43:34.627Z,43.51
2019-03-10T12:44:34.782Z,43.12
2019-03-10T12:45:34.712Z,43.71
2019-03-10T12:46:34.627Z,43.71
2019-03-10T12:47:34.568Z,43.41
2019-03-10T12:48:35.091Z,43.54
2019-03-10T12:49:35.015Z,43.32
2019-03-10T12:50:34.699Z,43.62
2019-03-10T12:51:34.569Z,43.62
2019-03-10T12:52:35.096Z,43.71
2019-03-10T12:53:34.505Z,43.82